Latest Weather Observations for Redesdale

IDV60801

Issued at 9:32 pm EST Friday 1 July 2016 (issued every 30 minutes, with the page automatically refreshed every 10 minutes)

About weather observations | Map of weather stations | Latest weather observations for VIC | Other Formats
Station Details ID: 088051 Name: REDESDALE Lat: -37.02 Lon: 144.52 Height: 290.0 m
Data from the previous 72 hours. | See also: Recent months at Redesdale
Date/Time
EST
Temp
°C
App
Temp
°C
Dew
Point
°C
Rel
Hum
%
Delta-T
°C
Wind Press
QNH
hPa
Press
MSL
hPa
Rain since
9am
mm
Dir  Spd
km/h
Gust
km/h
Spd
kts
Gust
kts
01/09:30pm 8.5 6.8 6.1 85 1.1 WSW 4 7 2 4 - - 0.2
01/09:00pm 8.8 7.8 5.5 80 1.5 CALM 0 0 0 0 - - 0.2
01/08:30pm 9.0 7.2 5.4 78 1.7 NW 4 6 2 3 - - 0.2
01/08:00pm 9.0 7.2 5.4 78 1.7 NNW 4 6 2 3 - - 0.2
01/07:30pm 9.2 7.1 5.6 78 1.7 NW 6 7 3 4 - - 0.2
01/07:00pm 9.1 7.7 5.5 78 1.7 NW 2 4 1 2 - - 0.2
01/06:30pm 9.2 7.4 5.6 78 1.7 NW 4 7 2 4 - - 0.2
01/06:00pm 9.3 7.9 5.5 77 1.8 WNW 2 4 1 2 - - 0.2
01/05:30pm 9.5 7.7 5.3 75 1.9 W 4 7 2 4 - - 0.2
01/05:00pm 9.8 8.3 5.2 73 2.1 W 2 4 1 2 - - 0.0
01/04:30pm 10.1 7.6 4.9 70 2.4 W 7 13 4 7 - - 0.0
01/04:00pm 10.2 7.9 4.8 69 2.5 WSW 6 9 3 5 - - 0.0
01/03:30pm 10.2 7.0 5.0 70 2.4 WSW 11 19 6 10 - - 0.0
01/03:00pm 10.2 7.0 5.0 70 2.4 WSW 11 17 6 9 - - 0.0
01/02:30pm 10.4 6.8 4.8 68 2.6 WSW 13 19 7 10 - - 0.0
01/02:00pm 10.8 7.5 4.7 66 2.8 SW 11 17 6 9 - - 0.0
01/01:30pm 11.2 7.0 4.0 61 3.3 WSW 15 22 8 12 - - 0.0
01/01:00pm 10.3 7.4 4.5 67 2.6 SW 9 17 5 9 - - 0.0
01/12:30pm 10.2 6.1 4.4 67 2.6 SW 15 24 8 13 - - 0.0
01/12:00pm 10.3 6.7 4.9 69 2.5 SW 13 20 7 11 - - 0.0
01/11:30am 9.9 5.2 5.3 73 2.1 SW 19 26 10 14 - - 0.0
01/11:00am 9.9 6.2 6.1 77 1.8 SW 15 24 8 13 - - 0.0
01/10:30am 10.3 5.7 6.6 78 1.8 SSW 20 28 11 15 - - 0.0
01/10:00am 9.6 6.5 7.2 85 1.2 SW 13 22 7 12 - - 0.0
01/09:30am 8.6 6.2 7.2 91 0.7 SW 9 19 5 10 - - 0.0
01/09:00am 7.5 6.4 7.1 97 0.2 W 2 4 1 2 - - 10.4
01/08:30am 7.3 5.4 6.9 97 0.2 WSW 6 11 3 6 - - 10.4
01/08:00am 7.2 5.7 6.6 96 0.3 WSW 4 7 2 4 - - 10.4
01/07:30am 6.9 4.4 6.5 97 0.2 WSW 9 13 5 7 - - 10.4
01/07:00am 6.0 4.2 5.4 96 0.3 W 4 7 2 4 - - 10.4
01/06:30am 5.4 3.1 5.0 97 0.2 SW 6 11 3 6 - - 10.4
01/06:00am 5.1 3.4 4.2 94 0.4 W 2 4 1 2 - - 10.4
01/05:30am 6.3 4.1 5.1 92 0.5 WSW 6 9 3 5 - - 10.4
01/05:00am 5.9 3.9 4.5 91 0.6 W 4 7 2 4 - - 10.4
01/04:30am 6.3 3.0 4.8 90 0.7 SSW 11 17 6 9 - - 10.4
01/04:00am 6.9 3.0 5.5 91 0.6 SW 15 19 8 10 - - 10.4
01/03:30am 7.2 3.5 6.1 93 0.5 SW 15 20 8 11 - - 10.4
01/03:00am 7.0 3.7 6.4 96 0.3 SSW 13 20 7 11 - - 10.4
01/02:30am 7.0 4.1 6.7 98 0.1 SW 11 17 6 9 - - 10.4
01/02:00am 6.5 3.5 6.2 98 0.1 WSW 11 19 6 10 - - 10.4
01/01:30am 6.4 3.4 6.0 97 0.2 WSW 11 19 6 10 - - 10.2
01/01:00am 6.6 3.3 6.2 97 0.2 SW 13 22 7 12 - - 10.2
01/12:30am 6.3 3.7 6.0 98 0.1 WSW 9 19 5 10 - - 10.2
01/12:00am 5.8 3.6 5.4 97 0.2 WNW 6 13 3 7 - - 10.0
 
Date/Time
EST
Temp
°C
App
Temp
°C
Dew
Point
°C
Rel
Hum
%
Delta-T
°C
Wind Press
QNH
hPa
Press
MSL
hPa
Rain since
9am
mm
Dir  Spd
km/h
Gust
km/h
Spd
kts
Gust
kts
30/11:30pm 5.8 3.0 5.1 95 0.3 NNW 9 17 5 9 - - 9.8
30/11:00pm 5.6 2.3 4.7 94 0.4 NW 11 17 6 9 - - 9.6
30/10:30pm 5.6 2.7 4.4 92 0.5 NNW 9 15 5 8 - - 9.2
30/10:00pm 5.5 2.9 4.3 92 0.5 NW 7 13 4 7 - - 9.2
30/09:30pm 5.2 2.7 4.5 95 0.3 N 7 11 4 6 - - 8.2
30/09:00pm 4.8 2.2 4.1 95 0.3 N 7 13 4 7 - - 8.2
30/08:30pm 4.8 2.2 4.1 95 0.3 N 7 9 4 5 - - 8.2
30/08:00pm 5.0 2.1 4.9 99 0.0 N 9 11 5 6 - - 8.2
30/07:30pm 5.0 2.7 4.9 99 0.0 N 6 7 3 4 - - 8.2
30/07:00pm 5.0 2.5 4.9 99 0.0 NNW 7 9 4 5 - - 8.2
30/06:30pm 5.5 3.3 5.2 98 0.1 N 6 7 3 4 - - 8.2
30/06:00pm 6.1 4.0 5.7 97 0.2 N 6 7 3 4 - - 8.2
30/05:30pm 6.4 4.7 6.0 97 0.2 NNW 4 6 2 3 - - 8.2
30/05:00pm 6.8 4.8 6.2 96 0.3 NNW 6 9 3 5 - - 8.2
30/04:30pm 7.1 4.3 7.0 99 0.0 WNW 11 17 6 9 - - 8.0
30/04:00pm 7.3 3.8 7.2 99 0.0 N 15 22 8 12 - - 7.0
30/03:30pm 7.0 3.1 6.9 99 0.0 N 17 26 9 14 - - 4.4
30/03:00pm 6.8 2.8 6.7 99 0.0 N 17 26 9 14 - - 4.0
30/02:30pm 6.8 2.8 6.7 99 0.0 N 17 24 9 13 - - 3.8
30/02:00pm 6.6 2.6 6.5 99 0.0 N 17 26 9 14 - - 3.4
30/01:30pm 6.4 1.9 6.3 99 0.0 N 19 26 10 14 - - 2.8
30/01:00pm 6.3 1.6 6.2 99 0.0 NNE 20 32 11 17 - - 2.6
30/12:30pm 6.2 1.5 6.1 99 0.0 NNE 20 32 11 17 - - 1.2
30/12:00pm 6.2 1.7 6.1 99 0.0 NNE 19 28 10 15 - - 1.0
30/11:30am 6.2 2.0 5.8 97 0.2 NNE 17 26 9 14 - - 0.6
30/11:00am 6.4 2.1 5.4 93 0.4 NNE 17 26 9 14 - - 0.2
30/10:30am 6.3 2.3 5.1 92 0.5 NNE 15 24 8 13 - - 0.2
30/10:00am 6.3 2.0 5.1 92 0.5 NNE 17 26 9 14 - - 0.2
30/09:30am 6.5 2.1 5.0 90 0.7 N 17 24 9 13 - - 0.0
30/09:00am 6.5 3.2 4.8 89 0.8 NNE 11 20 6 11 - - 0.0
30/08:30am 6.5 1.7 4.7 88 0.8 N 19 26 10 14 - - 0.0
30/08:00am 6.4 2.0 4.7 89 0.8 N 17 26 9 14 - - 0.0
30/07:30am 6.6 2.5 4.6 87 0.9 N 15 24 8 13 - - 0.0
30/07:00am 6.4 2.0 4.7 89 0.8 N 17 24 9 13 - - 0.0
30/06:30am 6.4 2.4 4.7 89 0.8 NNE 15 24 8 13 - - 0.0
30/06:00am 6.4 2.3 4.6 88 0.8 N 15 30 8 16 - - 0.0
30/05:30am 6.4 2.3 4.6 88 0.8 N 15 20 8 11 - - 0.0
30/05:00am 6.6 2.2 4.6 87 0.9 N 17 24 9 13 - - 0.0
30/04:30am 6.7 2.3 4.7 87 0.9 N 17 26 9 14 - - 0.0
30/04:00am 6.7 2.3 4.5 86 1.0 N 17 26 9 14 - - 0.0
30/03:30am 6.7 1.9 4.5 86 1.0 N 19 26 10 14 - - 0.0
30/03:00am 6.8 2.4 4.8 87 0.9 N 17 24 9 13 - - 0.0
30/02:30am 6.7 2.0 5.0 89 0.8 N 19 24 10 13 - - 0.0
30/02:00am 6.5 1.8 5.0 90 0.7 NNE 19 26 10 14 - - 0.0
30/01:30am 6.5 2.6 5.3 92 0.5 NNE 15 24 8 13 - - 0.0
30/01:00am 6.4 2.1 5.4 93 0.4 N 17 24 9 13 - - 0.0
30/12:30am 6.6 2.3 5.2 91 0.6 N 17 24 9 13 - - 0.0
30/12:00am 7.3 2.5 5.4 88 0.9 N 20 30 11 16 - - 0.0
 
Date/Time
EST
Temp
°C
App
Temp
°C
Dew
Point
°C
Rel
Hum
%
Delta-T
°C
Wind Press
QNH
hPa
Press
MSL
hPa
Rain since
9am
mm
Dir  Spd
km/h
Gust
km/h
Spd
kts
Gust
kts
29/11:30pm 7.6 2.8 5.6 87 0.9 N 20 30 11 16 - - 0.0
29/11:00pm 8.0 2.8 5.5 84 1.1 N 22 32 12 17 - - 0.0
29/10:30pm 8.2 4.0 5.7 84 1.1 N 17 26 9 14 - - 0.0
29/10:00pm 8.5 3.9 5.6 82 1.3 N 19 28 10 15 - - 0.0
29/09:30pm 8.4 4.2 5.5 82 1.3 N 17 28 9 15 - - 0.0
29/09:00pm 8.8 4.2 5.5 80 1.5 N 19 24 10 13 - - 0.0
29/08:30pm 8.8 4.2 5.7 81 1.4 N 19 24 10 13 - - 0.0
29/08:00pm 8.5 4.7 5.6 82 1.3 NNE 15 19 8 10 - - 0.0
29/07:30pm 8.3 4.8 5.6 83 1.2 N 13 19 7 10 - - 0.0
29/07:00pm 8.3 5.2 5.6 83 1.2 N 11 15 6 8 - - 0.0
29/06:30pm 8.3 5.5 5.2 81 1.4 NNE 9 13 5 7 - - 0.0
29/06:00pm 8.5 6.0 4.9 78 1.6 N 7 13 4 7 - - 0.0
29/05:30pm 9.2 5.6 4.8 74 2.0 N 13 19 7 10 - - 0.0
29/05:00pm 9.7 6.1 4.9 72 2.2 N 13 17 7 9 - - 0.0
29/04:30pm 10.0 6.4 5.0 71 2.3 N 13 20 7 11 - - 0.0
29/04:00pm 10.5 5.6 4.9 68 2.6 N 20 30 11 16 - - 0.0
29/03:30pm 10.9 5.9 4.6 65 2.9 N 20 32 11 17 - - 0.0
29/03:00pm 11.9 6.9 4.4 60 3.4 N 20 33 11 18 - - 0.0
29/02:30pm 11.9 6.9 4.4 60 3.4 NNW 20 28 11 15 - - 0.0
29/02:00pm 11.6 6.8 4.6 62 3.2 NNW 19 30 10 16 - - 0.0
29/01:30pm 12.1 7.5 5.7 65 3.0 NNW 19 24 10 13 - - 0.0
29/01:00pm 12.1 7.8 5.3 63 3.2 NNW 17 24 9 13 - - 0.0
29/12:30pm 11.6 7.8 5.9 68 2.7 NNW 15 22 8 12 - - 0.0
29/12:00pm 11.6 8.5 7.1 74 2.2 N 13 20 7 11 - - 0.0
29/11:30am 10.6 7.5 7.1 79 1.7 N 13 19 7 10 - - 0.0
29/11:00am 9.7 8.5 9.6 99 0.1 NE 6 9 3 5 - - 0.0
29/10:30am 8.6 6.9 8.5 99 0.0 NNE 7 9 4 5 - - 0.0
29/10:00am 8.1 6.5 8.0 99 0.0 NNE 6 7 3 4 - - 0.0
29/09:30am 8.0 6.8 7.9 99 0.0 NNE 4 6 2 3 - - 0.0
29/09:00am 7.7 6.0 7.6 99 0.0 N 6 7 3 4 - - 1.6
29/08:30am 7.7 6.8 7.6 99 0.0 N 2 4 1 2 - - 1.6
29/08:00am 7.6 6.3 7.5 99 0.0 N 4 4 2 2 - - 1.6
29/07:30am 7.6 6.6 7.5 99 0.0 N 2 2 1 1 - - 1.6
29/07:00am 7.5 6.9 7.4 99 0.0 CALM 0 0 0 0 - - 1.6
29/06:30am 7.6 7.0 7.5 99 0.0 CALM 0 0 0 0 - - 1.4
29/06:00am 7.7 7.1 7.6 99 0.0 CALM 0 0 0 0 - - 1.4
29/05:30am 7.8 6.1 7.7 99 0.0 NW 6 6 3 3 - - 1.4
29/05:00am 7.9 6.3 7.8 99 0.0 N 6 9 3 5 - - 1.4
29/04:30am 8.2 6.4 8.1 99 0.0 N 7 9 4 5 - - 1.4
29/04:00am 8.3 6.7 8.2 99 0.0 NNE 6 6 3 3 - - 1.4
29/03:30am 8.5 7.0 8.4 99 0.0 NNE 6 7 3 4 - - 1.4
29/03:00am 8.5 7.0 8.4 99 0.0 N 6 7 3 4 - - 1.4
29/02:30am 8.5 7.4 8.4 99 0.0 N 4 6 2 3 - - 1.4
29/02:00am 8.5 7.4 8.4 99 0.0 NNE 4 6 2 3 - - 1.4
29/01:30am 8.4 7.3 8.3 99 0.0 NNE 4 4 2 2 - - 1.4
29/01:00am 8.4 7.6 8.3 99 0.0 NNE 2 6 1 3 - - 1.4
29/12:30am 8.4 7.6 8.3 99 0.0 NNE 2 4 1 2 - - 1.4
29/12:00am 8.4 7.6 8.3 99 0.0 N 2 4 1 2 - - 0.8
 
Date/Time
EST
Temp
°C
App
Temp
°C
Dew
Point
°C
Rel
Hum
%
Delta-T
°C
Wind Press
QNH
hPa
Press
MSL
hPa
Rain since
9am
mm
Dir  Spd
km/h
Gust
km/h
Spd
kts
Gust
kts
28/11:30pm 8.4 7.6 8.3 99 0.0 NNE 2 6 1 3 - - 0.6
28/11:00pm 8.3 7.9 8.2 99 0.0 CALM 0 0 0 0 - - 0.2
28/10:30pm 8.4 8.0 8.3 99 0.0 CALM 0 0 0 0 - - 0.2
28/10:00pm 8.4 7.6 8.3 99 0.0 NE 2 6 1 3 - - 0.0

Other Formats:

Comma delimited format used in spreadsheet applications
http://www.bom.gov.au/fwo/IDV60801/IDV60801.94859.axf

JavaScript Object Notation format (JSON) in row-major order
http://www.bom.gov.au/fwo/IDV60801/IDV60801.94859.json